SWA55KB KRDU-CYUL
Flight info
| Callsign | SWA55KB |
|---|---|
| Flight time | N/A |
| Altitude | 35000 |
| Route | BEXGO5 BOUSY DCT RIC DCT SAX DCT PONCT DCT PBERG CARTR5 |
| Aircraft | B38M/M-SDE1FGHILORVWXY/HB1 |
Departure
| Time | 2026-05-07 00:47 |
|---|---|
| Airport | Raleigh-Durham International Airport (KRDU) |
Arrival
| Time | N/A |
|---|---|
| Airport | Montreal / Pierre Elliott Trudeau International Airport (CYUL) |
| Time | Latitude | Longitude | Altitude | Speed | Heading |
|---|---|---|---|---|---|
| 2026-05-07 00:17 | 35.87251 | -78.79116 | 422 ft | 0 kts | 314° |
| 2026-05-07 00:36 | 35.87238 | -78.79099 | 422 ft | 4 kts | 316° |
| 2026-05-07 00:36 | 35.87217 | -78.79077 | 429 ft | 4 kts | 326° |
| 2026-05-07 00:36 | 35.87194 | -78.79061 | 422 ft | 4 kts | 343° |
| 2026-05-07 00:37 | 35.87169 | -78.79060 | 430 ft | 4 kts | 24° |
| 2026-05-07 00:37 | 35.87158 | -78.79069 | 422 ft | 1 kts | 45° |
| 2026-05-07 00:37 | 35.87157 | -78.79071 | 422 ft | 0 kts | 45° |
| 2026-05-07 00:39 | 35.87157 | -78.79070 | 422 ft | 0 kts | 45° |
| 2026-05-07 00:39 | 35.87166 | -78.79060 | 425 ft | 3 kts | 45° |
| 2026-05-07 00:40 | 35.87192 | -78.79027 | 427 ft | 7 kts | 45° |
| 2026-05-07 00:40 | 35.87233 | -78.78977 | 427 ft | 9 kts | 45° |
| 2026-05-07 00:40 | 35.87279 | -78.78919 | 436 ft | 10 kts | 45° |
| 2026-05-07 00:40 | 35.87331 | -78.78855 | 438 ft | 11 kts | 45° |
| 2026-05-07 00:41 | 35.87388 | -78.78783 | 432 ft | 13 kts | 45° |
| 2026-05-07 00:41 | 35.87467 | -78.78687 | 431 ft | 19 kts | 44° |
| 2026-05-07 00:41 | 35.87570 | -78.78559 | 436 ft | 24 kts | 45° |
| 2026-05-07 00:41 | 35.87701 | -78.78396 | 437 ft | 30 kts | 46° |
| 2026-05-07 00:42 | 35.87856 | -78.78197 | 436 ft | 34 kts | 46° |
| 2026-05-07 00:42 | 35.87874 | -78.78173 | 431 ft | 0 kts | 45° |
| 2026-05-07 00:42 | 35.87889 | -78.78160 | 427 ft | 6 kts | 34° |
| 2026-05-07 00:42 | 35.87924 | -78.78123 | 437 ft | 6 kts | 43° |
| 2026-05-07 00:43 | 35.87955 | -78.78087 | 435 ft | 0 kts | 45° |
| 2026-05-07 00:43 | 35.87957 | -78.78084 | 434 ft | 2 kts | 45° |
| 2026-05-07 00:43 | 35.87975 | -78.78052 | 431 ft | 7 kts | 67° |
| 2026-05-07 00:43 | 35.87969 | -78.78023 | 434 ft | 0 kts | 128° |
| 2026-05-07 00:45 | 35.87968 | -78.78022 | 434 ft | 1 kts | 128° |
| 2026-05-07 00:45 | 35.87937 | -78.77981 | 436 ft | 12 kts | 136° |
| 2026-05-07 00:46 | 35.87872 | -78.77995 | 428 ft | 12 kts | 227° |
| 2026-05-07 00:46 | 35.87866 | -78.78004 | 428 ft | 5 kts | 226° |
| 2026-05-07 00:46 | 35.87687 | -78.78223 | 423 ft | 74 kts | 225° |
| 2026-05-07 00:46 | 35.87158 | -78.78880 | 434 ft | 140 kts | 224° |
| 2026-05-07 00:47 | 35.86383 | -78.79878 | 700 ft | 173 kts | 223° |
| 2026-05-07 00:47 | 35.85591 | -78.80991 | 1645 ft | 168 kts | 224° |
| 2026-05-07 00:47 | 35.84860 | -78.82084 | 2659 ft | 165 kts | 225° |
| 2026-05-07 00:47 | 35.84096 | -78.83180 | 3422 ft | 170 kts | 226° |
| 2026-05-07 00:48 | 35.83325 | -78.84228 | 4320 ft | 166 kts | 227° |
| 2026-05-07 00:48 | 35.82473 | -78.85335 | 4462 ft | 186 kts | 225° |
| 2026-05-07 00:48 | 35.81532 | -78.86532 | 4687 ft | 201 kts | 226° |
| 2026-05-07 00:48 | 35.80606 | -78.87841 | 5421 ft | 205 kts | 236° |
| 2026-05-07 00:49 | 35.80193 | -78.88930 | 5710 ft | 221 kts | 250° |
| 2026-05-07 00:49 | 35.79836 | -78.90834 | 5827 ft | 233 kts | 258° |
| 2026-05-07 00:49 | 35.79738 | -78.92900 | 6137 ft | 253 kts | 272° |
| 2026-05-07 00:49 | 35.80362 | -78.94967 | 6070 ft | 265 kts | 302° |
| 2026-05-07 00:50 | 35.81693 | -78.96588 | 6438 ft | 273 kts | 316° |
| 2026-05-07 00:50 | 35.83182 | -78.97993 | 7521 ft | 255 kts | 320° |
| 2026-05-07 00:50 | 35.84630 | -78.98996 | 8959 ft | 241 kts | 338° |
| 2026-05-07 00:50 | 35.86386 | -78.99078 | 9270 ft | 270 kts | 15° |
| 2026-05-07 00:51 | 35.88014 | -78.97825 | 9689 ft | 289 kts | 50° |
| 2026-05-07 00:51 | 35.89078 | -78.95686 | 10115 ft | 304 kts | 60° |
| 2026-05-07 00:51 | 35.90380 | -78.93532 | 10467 ft | 322 kts | 46° |
| 2026-05-07 00:51 | 35.91935 | -78.91428 | 10773 ft | 342 kts | 46° |
| 2026-05-07 00:52 | 35.93578 | -78.89187 | 11035 ft | 362 kts | 46° |
| 2026-05-07 00:52 | 35.95312 | -78.86811 | 11251 ft | 382 kts | 46° |
| 2026-05-07 00:52 | 35.97131 | -78.84310 | 11427 ft | 401 kts | 47° |
| 2026-05-07 00:52 | 35.99027 | -78.81687 | 11708 ft | 415 kts | 47° |
| 2026-05-07 00:53 | 36.00957 | -78.78994 | 12010 ft | 418 kts | 47° |
| 2026-05-07 00:53 | 36.02848 | -78.76326 | 12074 ft | 418 kts | 47° |
| 2026-05-07 00:53 | 36.04761 | -78.73613 | 12062 ft | 418 kts | 47° |
| 2026-05-07 00:53 | 36.06673 | -78.70895 | 12071 ft | 418 kts | 47° |
| 2026-05-07 00:54 | 36.08595 | -78.68164 | 12316 ft | 420 kts | 47° |
| 2026-05-07 00:54 | 36.10501 | -78.65445 | 12968 ft | 421 kts | 47° |
| 2026-05-07 00:54 | 36.12434 | -78.62690 | 13491 ft | 426 kts | 47° |
| 2026-05-07 00:54 | 36.14385 | -78.59908 | 14041 ft | 428 kts | 47° |
| 2026-05-07 00:55 | 36.16344 | -78.57110 | 14534 ft | 431 kts | 47° |
| 2026-05-07 00:55 | 36.18293 | -78.54325 | 15013 ft | 434 kts | 47° |
| 2026-05-07 00:55 | 36.20275 | -78.51489 | 15515 ft | 437 kts | 47° |
| 2026-05-07 00:55 | 36.22279 | -78.48621 | 15936 ft | 442 kts | 47° |
| 2026-05-07 00:56 | 36.24294 | -78.45732 | 16423 ft | 444 kts | 47° |